sensor_id;sensor_type;location;lat;lon;timestamp;temperature;humidity
16076;DHT22;8142;48.242;11.644;2023-03-08T00:00:42;4.90;99.90
16076;DHT22;8142;48.242;11.644;2023-03-08T00:03:13;4.90;99.90
16076;DHT22;8142;48.242;11.644;2023-03-08T00:05:39;4.80;99.90
16076;DHT22;8142;48.242;11.644;2023-03-08T00:08:05;4.80;99.90
16076;DHT22;8142;48.242;11.644;2023-03-08T00:10:31;4.80;99.90
16076;DHT22;8142;48.242;11.644;2023-03-08T00:12:57;4.80;99.90
16076;DHT22;8142;48.242;11.644;2023-03-08T00:15:22;4.70;99.90
16076;DHT22;8142;48.242;11.644;2023-03-08T00:17:48;4.80;99.90
16076;DHT22;8142;48.242;11.644;2023-03-08T00:20:14;4.70;99.90
16076;DHT22;8142;48.242;11.644;2023-03-08T00:22:41;4.70;99.90
16076;DHT22;8142;48.242;11.644;2023-03-08T00:25:08;4.70;99.90
16076;DHT22;8142;48.242;11.644;2023-03-08T00:27:35;4.60;99.90
16076;DHT22;8142;48.242;11.644;2023-03-08T00:30:02;4.70;99.90
16076;DHT22;8142;48.242;11.644;2023-03-08T00:32:29;4.60;99.90
16076;DHT22;8142;48.242;11.644;2023-03-08T00:34:55;4.60;99.90
16076;DHT22;8142;48.242;11.644;2023-03-08T00:37:21;4.60;99.90
16076;DHT22;8142;48.242;11.644;2023-03-08T00:39:50;4.60;99.90
16076;DHT22;8142;48.242;11.644;2023-03-08T00:42:17;4.50;99.90
16076;DHT22;8142;48.242;11.644;2023-03-08T00:44:43;4.50;99.90
16076;DHT22;8142;48.242;11.644;2023-03-08T00:47:09;4.50;99.90
16076;DHT22;8142;48.242;11.644;2023-03-08T00:49:35;4.50;99.90
16076;DHT22;8142;48.242;11.644;2023-03-08T00:52:01;4.50;99.90
16076;DHT22;8142;48.242;11.644;2023-03-08T00:54:28;4.50;99.90
16076;DHT22;8142;48.242;11.644;2023-03-08T00:56:54;4.50;99.90
16076;DHT22;8142;48.242;11.644;2023-03-08T00:59:20;4.50;99.90
16076;DHT22;8142;48.242;11.644;2023-03-08T01:01:46;4.50;99.90
16076;DHT22;8142;48.242;11.644;2023-03-08T01:04:12;4.50;99.90
16076;DHT22;8142;48.242;11.644;2023-03-08T01:06:38;4.50;99.90
16076;DHT22;8142;48.242;11.644;2023-03-08T01:09:05;4.40;99.90
16076;DHT22;8142;48.242;11.644;2023-03-08T01:11:31;4.50;99.90
16076;DHT22;8142;48.242;11.644;2023-03-08T01:14:00;4.40;99.90
16076;DHT22;8142;48.242;11.644;2023-03-08T01:16:28;4.40;99.90
16076;DHT22;8142;48.242;11.644;2023-03-08T01:18:55;4.40;99.90
16076;DHT22;8142;48.242;11.644;2023-03-08T01:21:21;4.40;99.90
16076;DHT22;8142;48.242;11.644;2023-03-08T01:23:48;4.40;99.90
16076;DHT22;8142;48.242;11.644;2023-03-08T01:26:15;4.40;99.90
16076;DHT22;8142;48.242;11.644;2023-03-08T01:28:42;4.40;99.90
16076;DHT22;8142;48.242;11.644;2023-03-08T01:33:38;4.40;99.90
16076;DHT22;8142;48.242;11.644;2023-03-08T01:36:06;4.40;99.90
16076;DHT22;8142;48.242;11.644;2023-03-08T01:38:33;4.40;99.90
16076;DHT22;8142;48.242;11.644;2023-03-08T01:41:01;4.40;99.90
16076;DHT22;8142;48.242;11.644;2023-03-08T01:43:35;4.30;99.90
16076;DHT22;8142;48.242;11.644;2023-03-08T01:46:22;4.30;99.90
16076;DHT22;8142;48.242;11.644;2023-03-08T01:54:00;4.20;99.90
16076;DHT22;8142;48.242;11.644;2023-03-08T01:56:28;4.30;99.90
16076;DHT22;8142;48.242;11.644;2023-03-08T01:58:54;4.20;99.90
16076;DHT22;8142;48.242;11.644;2023-03-08T02:01:20;4.20;99.90
16076;DHT22;8142;48.242;11.644;2023-03-08T02:03:47;4.20;99.90
16076;DHT22;8142;48.242;11.644;2023-03-08T02:06:14;4.20;99.90
16076;DHT22;8142;48.242;11.644;2023-03-08T02:08:40;4.20;99.90
16076;DHT22;8142;48.242;11.644;2023-03-08T02:11:07;4.10;99.90
16076;DHT22;8142;48.242;11.644;2023-03-08T02:13:33;4.10;99.90
16076;DHT22;8142;48.242;11.644;2023-03-08T02:16:00;4.10;99.90
16076;DHT22;8142;48.242;11.644;2023-03-08T02:18:27;4.00;99.90
16076;DHT22;8142;48.242;11.644;2023-03-08T02:20:53;4.00;99.90
16076;DHT22;8142;48.242;11.644;2023-03-08T02:23:21;4.00;99.90
16076;DHT22;8142;48.242;11.644;2023-03-08T02:25:53;4.00;99.90
16076;DHT22;8142;48.242;11.644;2023-03-08T02:28:21;3.90;99.90
16076;DHT22;8142;48.242;11.644;2023-03-08T02:30:47;3.90;99.90
16076;DHT22;8142;48.242;11.644;2023-03-08T02:33:13;3.90;99.90
16076;DHT22;8142;48.242;11.644;2023-03-08T02:35:39;3.90;99.90
16076;DHT22;8142;48.242;11.644;2023-03-08T02:38:09;3.90;99.90
16076;DHT22;8142;48.242;11.644;2023-03-08T02:40:36;3.90;99.90
16076;DHT22;8142;48.242;11.644;2023-03-08T02:43:02;3.90;99.90
16076;DHT22;8142;48.242;11.644;2023-03-08T02:45:28;3.90;99.90
16076;DHT22;8142;48.242;11.644;2023-03-08T02:47:54;3.90;99.90
16076;DHT22;8142;48.242;11.644;2023-03-08T02:50:20;3.90;99.90
16076;DHT22;8142;48.242;11.644;2023-03-08T02:52:46;3.90;99.90
16076;DHT22;8142;48.242;11.644;2023-03-08T02:55:12;3.90;99.90
16076;DHT22;8142;48.242;11.644;2023-03-08T02:57:38;3.80;99.90
16076;DHT22;8142;48.242;11.644;2023-03-08T03:00:04;3.90;99.90
16076;DHT22;8142;48.242;11.644;2023-03-08T03:02:34;3.80;99.90
16076;DHT22;8142;48.242;11.644;2023-03-08T03:05:02;3.90;99.90
16076;DHT22;8142;48.242;11.644;2023-03-08T03:07:28;3.80;99.90
16076;DHT22;8142;48.242;11.644;2023-03-08T03:09:54;3.90;99.90
16076;DHT22;8142;48.242;11.644;2023-03-08T03:12:20;3.80;99.90
16076;DHT22;8142;48.242;11.644;2023-03-08T03:14:46;3.80;99.90
16076;DHT22;8142;48.242;11.644;2023-03-08T03:17:12;3.80;99.90
16076;DHT22;8142;48.242;11.644;2023-03-08T03:19:38;3.80;99.90
16076;DHT22;8142;48.242;11.644;2023-03-08T03:22:04;3.80;99.90
16076;DHT22;8142;48.242;11.644;2023-03-08T03:24:29;3.80;99.90
16076;DHT22;8142;48.242;11.644;2023-03-08T03:26:55;3.70;99.90
16076;DHT22;8142;48.242;11.644;2023-03-08T03:29:21;3.70;99.90
16076;DHT22;8142;48.242;11.644;2023-03-08T03:31:47;3.70;99.90
16076;DHT22;8142;48.242;11.644;2023-03-08T03:34:13;3.70;99.90
16076;DHT22;8142;48.242;11.644;2023-03-08T03:36:39;3.70;99.90
16076;DHT22;8142;48.242;11.644;2023-03-08T03:39:05;3.70;99.90
16076;DHT22;8142;48.242;11.644;2023-03-08T03:41:31;3.70;99.90
16076;DHT22;8142;48.242;11.644;2023-03-08T03:43:57;3.70;99.90
16076;DHT22;8142;48.242;11.644;2023-03-08T03:46:23;3.70;99.90
16076;DHT22;8142;48.242;11.644;2023-03-08T03:48:49;3.70;99.90
16076;DHT22;8142;48.242;11.644;2023-03-08T03:51:18;3.70;99.90
16076;DHT22;8142;48.242;11.644;2023-03-08T03:53:45;3.70;99.90
16076;DHT22;8142;48.242;11.644;2023-03-08T03:56:19;3.70;99.90
16076;DHT22;8142;48.242;11.644;2023-03-08T03:58:46;3.70;99.90
16076;DHT22;8142;48.242;11.644;2023-03-08T04:01:20;3.70;99.90
16076;DHT22;8142;48.242;11.644;2023-03-08T04:03:47;3.70;99.90
16076;DHT22;8142;48.242;11.644;2023-03-08T04:06:24;3.60;99.90
16076;DHT22;8142;48.242;11.644;2023-03-08T04:08:52;3.50;99.90
16076;DHT22;8142;48.242;11.644;2023-03-08T04:11:20;3.30;99.90
16076;DHT22;8142;48.242;11.644;2023-03-08T04:13:47;3.10;99.90
16076;DHT22;8142;48.242;11.644;2023-03-08T04:16:22;2.90;99.90
16076;DHT22;8142;48.242;11.644;2023-03-08T04:18:52;2.70;99.90
16076;DHT22;8142;48.242;11.644;2023-03-08T04:21:18;2.50;99.90
16076;DHT22;8142;48.242;11.644;2023-03-08T04:23:44;2.30;99.90
16076;DHT22;8142;48.242;11.644;2023-03-08T04:26:10;2.20;99.90
16076;DHT22;8142;48.242;11.644;2023-03-08T04:28:39;2.00;99.90
16076;DHT22;8142;48.242;11.644;2023-03-08T04:31:31;1.90;99.90
16076;DHT22;8142;48.242;11.644;2023-03-08T04:34:00;1.70;99.90
16076;DHT22;8142;48.242;11.644;2023-03-08T04:36:27;1.70;99.90
16076;DHT22;8142;48.242;11.644;2023-03-08T04:38:53;1.70;99.90
16076;DHT22;8142;48.242;11.644;2023-03-08T04:41:19;1.60;99.90
16076;DHT22;8142;48.242;11.644;2023-03-08T04:43:50;1.70;99.90
16076;DHT22;8142;48.242;11.644;2023-03-08T04:46:18;1.70;99.90
16076;DHT22;8142;48.242;11.644;2023-03-08T04:48:44;1.70;99.90
16076;DHT22;8142;48.242;11.644;2023-03-08T04:51:12;1.70;99.90
16076;DHT22;8142;48.242;11.644;2023-03-08T04:53:39;1.60;99.90
16076;DHT22;8142;48.242;11.644;2023-03-08T04:56:07;1.60;99.90
16076;DHT22;8142;48.242;11.644;2023-03-08T04:58:34;1.70;99.90
16076;DHT22;8142;48.242;11.644;2023-03-08T05:01:11;1.70;99.90
16076;DHT22;8142;48.242;11.644;2023-03-08T05:03:37;2.00;99.90
16076;DHT22;8142;48.242;11.644;2023-03-08T05:06:04;1.90;99.90
16076;DHT22;8142;48.242;11.644;2023-03-08T05:08:30;2.00;99.90
16076;DHT22;8142;48.242;11.644;2023-03-08T05:10:58;2.00;99.90
16076;DHT22;8142;48.242;11.644;2023-03-08T05:13:25;2.00;99.90
16076;DHT22;8142;48.242;11.644;2023-03-08T05:15:52;2.00;99.90
16076;DHT22;8142;48.242;11.644;2023-03-08T05:18:18;2.00;99.90
16076;DHT22;8142;48.242;11.644;2023-03-08T05:21:14;1.90;99.90
16076;DHT22;8142;48.242;11.644;2023-03-08T05:23:37;1.90;99.90
16076;DHT22;8142;48.242;11.644;2023-03-08T05:26:04;1.90;99.90
16076;DHT22;8142;48.242;11.644;2023-03-08T05:28:32;1.80;99.90
16076;DHT22;8142;48.242;11.644;2023-03-08T05:31:03;1.80;99.90
16076;DHT22;8142;48.242;11.644;2023-03-08T05:33:30;1.80;99.90
16076;DHT22;8142;48.242;11.644;2023-03-08T05:35:55;1.80;99.90
16076;DHT22;8142;48.242;11.644;2023-03-08T05:38:22;1.80;99.90
16076;DHT22;8142;48.242;11.644;2023-03-08T05:40:48;1.80;99.90
16076;DHT22;8142;48.242;11.644;2023-03-08T05:43:15;1.80;99.90
16076;DHT22;8142;48.242;11.644;2023-03-08T05:45:41;1.90;99.90
16076;DHT22;8142;48.242;11.644;2023-03-08T05:48:07;1.90;99.90
16076;DHT22;8142;48.242;11.644;2023-03-08T05:50:33;1.90;99.90
16076;DHT22;8142;48.242;11.644;2023-03-08T05:52:59;1.90;99.90
16076;DHT22;8142;48.242;11.644;2023-03-08T05:55:24;2.00;99.90
16076;DHT22;8142;48.242;11.644;2023-03-08T05:57:50;2.10;99.90
16076;DHT22;8142;48.242;11.644;2023-03-08T06:00:16;2.30;99.90
16076;DHT22;8142;48.242;11.644;2023-03-08T06:02:42;2.30;99.90
16076;DHT22;8142;48.242;11.644;2023-03-08T06:05:08;2.50;99.90
16076;DHT22;8142;48.242;11.644;2023-03-08T06:07:34;2.50;99.90
16076;DHT22;8142;48.242;11.644;2023-03-08T06:10:00;2.60;99.90
16076;DHT22;8142;48.242;11.644;2023-03-08T06:12:26;2.70;99.90
16076;DHT22;8142;48.242;11.644;2023-03-08T06:14:52;2.80;99.90
16076;DHT22;8142;48.242;11.644;2023-03-08T06:17:18;2.90;99.90
16076;DHT22;8142;48.242;11.644;2023-03-08T06:19:45;2.90;99.90
16076;DHT22;8142;48.242;11.644;2023-03-08T06:22:11;3.00;99.90
16076;DHT22;8142;48.242;11.644;2023-03-08T06:24:37;3.10;99.90
16076;DHT22;8142;48.242;11.644;2023-03-08T06:27:03;3.10;99.90
16076;DHT22;8142;48.242;11.644;2023-03-08T06:29:29;3.20;99.90
16076;DHT22;8142;48.242;11.644;2023-03-08T06:31:54;3.20;99.90
16076;DHT22;8142;48.242;11.644;2023-03-08T06:34:20;3.30;99.90
16076;DHT22;8142;48.242;11.644;2023-03-08T06:36:46;3.30;99.90
16076;DHT22;8142;48.242;11.644;2023-03-08T06:39:12;3.40;99.90
16076;DHT22;8142;48.242;11.644;2023-03-08T06:41:38;3.40;99.90
16076;DHT22;8142;48.242;11.644;2023-03-08T06:44:04;3.50;99.90
16076;DHT22;8142;48.242;11.644;2023-03-08T06:46:30;3.60;99.90
16076;DHT22;8142;48.242;11.644;2023-03-08T06:48:55;3.60;99.90
16076;DHT22;8142;48.242;11.644;2023-03-08T06:51:21;3.70;99.90
16076;DHT22;8142;48.242;11.644;2023-03-08T06:53:47;3.70;99.90
16076;DHT22;8142;48.242;11.644;2023-03-08T06:56:15;3.80;99.90
16076;DHT22;8142;48.242;11.644;2023-03-08T06:58:41;3.80;99.90
16076;DHT22;8142;48.242;11.644;2023-03-08T07:01:07;3.90;99.90
16076;DHT22;8142;48.242;11.644;2023-03-08T07:03:34;3.90;99.90
16076;DHT22;8142;48.242;11.644;2023-03-08T07:06:03;4.00;99.90
16076;DHT22;8142;48.242;11.644;2023-03-08T07:08:30;4.00;99.90
16076;DHT22;8142;48.242;11.644;2023-03-08T07:10:56;4.00;99.90
16076;DHT22;8142;48.242;11.644;2023-03-08T07:13:23;4.00;99.90
16076;DHT22;8142;48.242;11.644;2023-03-08T07:15:50;4.10;99.90
16076;DHT22;8142;48.242;11.644;2023-03-08T07:18:15;4.10;99.90
16076;DHT22;8142;48.242;11.644;2023-03-08T07:20:42;4.10;99.90
16076;DHT22;8142;48.242;11.644;2023-03-08T07:23:08;4.20;99.90
16076;DHT22;8142;48.242;11.644;2023-03-08T07:25:34;4.20;99.90
16076;DHT22;8142;48.242;11.644;2023-03-08T07:28:02;4.20;99.90
16076;DHT22;8142;48.242;11.644;2023-03-08T07:30:28;4.20;99.90
16076;DHT22;8142;48.242;11.644;2023-03-08T07:32:53;4.20;99.90
16076;DHT22;8142;48.242;11.644;2023-03-08T07:35:19;4.20;99.90
16076;DHT22;8142;48.242;11.644;2023-03-08T07:37:46;4.10;99.90
16076;DHT22;8142;48.242;11.644;2023-03-08T07:40:14;4.10;99.90
16076;DHT22;8142;48.242;11.644;2023-03-08T07:42:41;4.00;99.90
16076;DHT22;8142;48.242;11.644;2023-03-08T07:45:08;4.00;99.90
16076;DHT22;8142;48.242;11.644;2023-03-08T07:47:35;3.90;99.90
16076;DHT22;8142;48.242;11.644;2023-03-08T07:50:01;3.80;99.90
16076;DHT22;8142;48.242;11.644;2023-03-08T07:52:30;3.80;99.90
16076;DHT22;8142;48.242;11.644;2023-03-08T07:54:56;3.80;99.90
16076;DHT22;8142;48.242;11.644;2023-03-08T07:57:22;3.70;99.90
16076;DHT22;8142;48.242;11.644;2023-03-08T07:59:51;3.70;99.90
16076;DHT22;8142;48.242;11.644;2023-03-08T08:02:17;3.60;99.90
16076;DHT22;8142;48.242;11.644;2023-03-08T08:04:43;3.60;99.90
16076;DHT22;8142;48.242;11.644;2023-03-08T08:07:14;3.70;99.90
16076;DHT22;8142;48.242;11.644;2023-03-08T08:09:40;3.70;99.90
16076;DHT22;8142;48.242;11.644;2023-03-08T08:12:06;3.80;99.90
16076;DHT22;8142;48.242;11.644;2023-03-08T08:14:32;3.90;99.90
16076;DHT22;8142;48.242;11.644;2023-03-08T08:16:58;4.10;99.90
16076;DHT22;8142;48.242;11.644;2023-03-08T08:19:24;4.20;99.90
16076;DHT22;8142;48.242;11.644;2023-03-08T08:21:50;4.30;99.90
16076;DHT22;8142;48.242;11.644;2023-03-08T08:24:16;4.40;99.90
16076;DHT22;8142;48.242;11.644;2023-03-08T08:26:42;4.50;99.90
16076;DHT22;8142;48.242;11.644;2023-03-08T08:29:08;4.60;99.90
16076;DHT22;8142;48.242;11.644;2023-03-08T08:31:34;4.80;99.90
16076;DHT22;8142;48.242;11.644;2023-03-08T08:34:00;4.80;99.90
16076;DHT22;8142;48.242;11.644;2023-03-08T08:36:26;4.90;99.90
16076;DHT22;8142;48.242;11.644;2023-03-08T08:38:52;5.00;99.90
16076;DHT22;8142;48.242;11.644;2023-03-08T08:41:19;5.20;99.90
16076;DHT22;8142;48.242;11.644;2023-03-08T08:43:47;5.20;99.90
16076;DHT22;8142;48.242;11.644;2023-03-08T08:46:14;5.20;99.90
16076;DHT22;8142;48.242;11.644;2023-03-08T08:48:40;5.30;99.90
16076;DHT22;8142;48.242;11.644;2023-03-08T08:51:07;5.30;99.90
16076;DHT22;8142;48.242;11.644;2023-03-08T08:53:34;5.40;99.90
16076;DHT22;8142;48.242;11.644;2023-03-08T08:56:10;5.40;99.90
16076;DHT22;8142;48.242;11.644;2023-03-08T08:58:36;5.50;99.90
16076;DHT22;8142;48.242;11.644;2023-03-08T09:01:02;5.50;99.90
16076;DHT22;8142;48.242;11.644;2023-03-08T09:03:27;5.60;99.90
16076;DHT22;8142;48.242;11.644;2023-03-08T09:05:53;5.60;99.90
16076;DHT22;8142;48.242;11.644;2023-03-08T09:08:22;5.70;99.90
16076;DHT22;8142;48.242;11.644;2023-03-08T09:10:47;5.70;99.90
16076;DHT22;8142;48.242;11.644;2023-03-08T09:13:13;5.70;99.90
16076;DHT22;8142;48.242;11.644;2023-03-08T09:15:39;5.80;99.90
16076;DHT22;8142;48.242;11.644;2023-03-08T09:18:05;5.90;99.90
16076;DHT22;8142;48.242;11.644;2023-03-08T09:20:31;5.90;99.90
16076;DHT22;8142;48.242;11.644;2023-03-08T09:22:57;6.00;99.90
16076;DHT22;8142;48.242;11.644;2023-03-08T09:25:23;6.00;99.90
16076;DHT22;8142;48.242;11.644;2023-03-08T09:27:49;6.00;99.90
16076;DHT22;8142;48.242;11.644;2023-03-08T09:30:16;6.00;99.90
16076;DHT22;8142;48.242;11.644;2023-03-08T09:32:42;6.10;99.90
16076;DHT22;8142;48.242;11.644;2023-03-08T09:35:08;6.10;99.90
16076;DHT22;8142;48.242;11.644;2023-03-08T09:37:35;6.20;99.90
16076;DHT22;8142;48.242;11.644;2023-03-08T09:40:01;6.20;99.90
16076;DHT22;8142;48.242;11.644;2023-03-08T09:42:34;6.20;99.90
16076;DHT22;8142;48.242;11.644;2023-03-08T09:48:13;6.20;99.90
16076;DHT22;8142;48.242;11.644;2023-03-08T09:50:44;6.30;99.90
16076;DHT22;8142;48.242;11.644;2023-03-08T09:55:48;6.30;99.90
16076;DHT22;8142;48.242;11.644;2023-03-08T10:00:47;6.40;99.90
16076;DHT22;8142;48.242;11.644;2023-03-08T10:08:30;6.50;99.90
16076;DHT22;8142;48.242;11.644;2023-03-08T10:11:05;6.50;99.90
16076;DHT22;8142;48.242;11.644;2023-03-08T10:13:46;6.60;99.90
16076;DHT22;8142;48.242;11.644;2023-03-08T10:19:14;6.60;99.90
16076;DHT22;8142;48.242;11.644;2023-03-08T10:21:42;6.70;99.90
16076;DHT22;8142;48.242;11.644;2023-03-08T10:24:33;6.60;99.90
16076;DHT22;8142;48.242;11.644;2023-03-08T10:27:23;6.60;99.90
16076;DHT22;8142;48.242;11.644;2023-03-08T10:29:51;6.60;99.90
16076;DHT22;8142;48.242;11.644;2023-03-08T10:32:17;6.60;99.90
16076;DHT22;8142;48.242;11.644;2023-03-08T10:34:43;6.60;99.90
16076;DHT22;8142;48.242;11.644;2023-03-08T10:37:08;6.60;99.90
16076;DHT22;8142;48.242;11.644;2023-03-08T10:39:36;6.60;99.90
16076;DHT22;8142;48.242;11.644;2023-03-08T10:42:12;6.70;99.90
16076;DHT22;8142;48.242;11.644;2023-03-08T10:44:52;6.70;99.90
16076;DHT22;8142;48.242;11.644;2023-03-08T10:47:22;6.60;99.90
16076;DHT22;8142;48.242;11.644;2023-03-08T10:49:48;6.70;99.90
16076;DHT22;8142;48.242;11.644;2023-03-08T10:52:26;6.70;99.90
16076;DHT22;8142;48.242;11.644;2023-03-08T10:55:03;6.70;99.90
16076;DHT22;8142;48.242;11.644;2023-03-08T10:57:29;6.70;99.90
16076;DHT22;8142;48.242;11.644;2023-03-08T11:00:04;6.70;99.90
16076;DHT22;8142;48.242;11.644;2023-03-08T11:02:36;6.80;99.90
16076;DHT22;8142;48.242;11.644;2023-03-08T11:05:23;6.80;99.90
16076;DHT22;8142;48.242;11.644;2023-03-08T11:07:53;6.80;99.90
16076;DHT22;8142;48.242;11.644;2023-03-08T11:10:22;6.80;99.90
16076;DHT22;8142;48.242;11.644;2023-03-08T11:13:27;6.80;99.90
16076;DHT22;8142;48.242;11.644;2023-03-08T11:24:22;6.80;99.90
16076;DHT22;8142;48.242;11.644;2023-03-08T11:27:10;6.80;99.90
16076;DHT22;8142;48.242;11.644;2023-03-08T11:32:33;6.80;99.90
16076;DHT22;8142;48.242;11.644;2023-03-08T11:43:40;6.70;99.90
16076;DHT22;8142;48.242;11.644;2023-03-08T11:46:21;6.90;99.90
16076;DHT22;8142;48.242;11.644;2023-03-08T11:52:18;6.90;99.90
16076;DHT22;8142;48.242;11.644;2023-03-08T11:57:39;6.90;99.90
16076;DHT22;8142;48.242;11.644;2023-03-08T12:00:36;6.90;99.90
16076;DHT22;8142;48.242;11.644;2023-03-08T12:03:23;6.90;99.90
16076;DHT22;8142;48.242;11.644;2023-03-08T12:05:56;7.00;99.90
16076;DHT22;8142;48.242;11.644;2023-03-08T12:13:31;7.00;99.90
16076;DHT22;8142;48.242;11.644;2023-03-08T12:16:17;7.00;99.90
16076;DHT22;8142;48.242;11.644;2023-03-08T12:27:20;7.20;99.90
16076;DHT22;8142;48.242;11.644;2023-03-08T12:29:53;7.20;99.90
16076;DHT22;8142;48.242;11.644;2023-03-08T12:32:21;7.30;99.90
16076;DHT22;8142;48.242;11.644;2023-03-08T12:34:47;7.40;99.90
16076;DHT22;8142;48.242;11.644;2023-03-08T12:37:27;7.40;99.90
16076;DHT22;8142;48.242;11.644;2023-03-08T12:40:25;7.40;99.90
16076;DHT22;8142;48.242;11.644;2023-03-08T12:43:03;7.50;99.90
16076;DHT22;8142;48.242;11.644;2023-03-08T12:45:30;7.60;99.90
16076;DHT22;8142;48.242;11.644;2023-03-08T12:48:18;7.70;99.90
16076;DHT22;8142;48.242;11.644;2023-03-08T12:53:38;7.80;99.90
16076;DHT22;8142;48.242;11.644;2023-03-08T12:58:58;7.90;99.90
16076;DHT22;8142;48.242;11.644;2023-03-08T13:01:35;8.00;99.90
16076;DHT22;8142;48.242;11.644;2023-03-08T13:04:04;8.00;99.90
16076;DHT22;8142;48.242;11.644;2023-03-08T13:09:43;8.10;99.90
16076;DHT22;8142;48.242;11.644;2023-03-08T13:14:43;8.30;99.90
16076;DHT22;8142;48.242;11.644;2023-03-08T13:19:55;8.30;99.90
16076;DHT22;8142;48.242;11.644;2023-03-08T13:22:41;8.40;99.90
16076;DHT22;8142;48.242;11.644;2023-03-08T13:30:32;8.70;99.90
16076;DHT22;8142;48.242;11.644;2023-03-08T13:32:59;8.80;99.90
16076;DHT22;8142;48.242;11.644;2023-03-08T13:35:26;9.00;99.90
16076;DHT22;8142;48.242;11.644;2023-03-08T13:37:57;9.00;99.90
16076;DHT22;8142;48.242;11.644;2023-03-08T13:40:27;9.20;99.90
16076;DHT22;8142;48.242;11.644;2023-03-08T13:42:56;9.20;99.90
16076;DHT22;8142;48.242;11.644;2023-03-08T13:45:24;9.40;99.90
16076;DHT22;8142;48.242;11.644;2023-03-08T13:47:50;9.50;99.90
16076;DHT22;8142;48.242;11.644;2023-03-08T13:52:54;9.70;99.90
16076;DHT22;8142;48.242;11.644;2023-03-08T13:55:43;9.80;99.90
16076;DHT22;8142;48.242;11.644;2023-03-08T13:58:34;9.80;99.90
16076;DHT22;8142;48.242;11.644;2023-03-08T14:01:13;9.90;99.90
16076;DHT22;8142;48.242;11.644;2023-03-08T14:03:41;10.00;99.90
16076;DHT22;8142;48.242;11.644;2023-03-08T14:08:55;10.10;99.90
16076;DHT22;8142;48.242;11.644;2023-03-08T14:11:34;10.20;99.90
16076;DHT22;8142;48.242;11.644;2023-03-08T14:14:05;10.30;99.90
16076;DHT22;8142;48.242;11.644;2023-03-08T14:16:39;10.30;99.90
16076;DHT22;8142;48.242;11.644;2023-03-08T14:19:25;10.40;99.90
16076;DHT22;8142;48.242;11.644;2023-03-08T14:21:59;10.40;99.90
16076;DHT22;8142;48.242;11.644;2023-03-08T14:24:31;10.50;99.90
16076;DHT22;8142;48.242;11.644;2023-03-08T14:29:30;10.60;99.90
16076;DHT22;8142;48.242;11.644;2023-03-08T14:32:25;10.70;99.90
16076;DHT22;8142;48.242;11.644;2023-03-08T14:34:50;10.80;99.90
16076;DHT22;8142;48.242;11.644;2023-03-08T14:37:23;10.90;99.90
16076;DHT22;8142;48.242;11.644;2023-03-08T14:39:51;10.80;99.90
16076;DHT22;8142;48.242;11.644;2023-03-08T14:44:56;10.80;99.90
16076;DHT22;8142;48.242;11.644;2023-03-08T14:47:28;10.70;99.90
16076;DHT22;8142;48.242;11.644;2023-03-08T14:50:18;10.70;99.90
16076;DHT22;8142;48.242;11.644;2023-03-08T14:52:48;10.70;99.90
16076;DHT22;8142;48.242;11.644;2023-03-08T14:55:34;10.70;99.90
16076;DHT22;8142;48.242;11.644;2023-03-08T14:58:02;10.70;99.90
16076;DHT22;8142;48.242;11.644;2023-03-08T15:00:30;10.70;99.90
16076;DHT22;8142;48.242;11.644;2023-03-08T15:02:57;10.70;99.90
16076;DHT22;8142;48.242;11.644;2023-03-08T15:05:24;10.70;99.90
16076;DHT22;8142;48.242;11.644;2023-03-08T15:07:51;10.70;99.90
16076;DHT22;8142;48.242;11.644;2023-03-08T15:10:35;10.70;99.90
16076;DHT22;8142;48.242;11.644;2023-03-08T15:13:08;10.60;99.90
16076;DHT22;8142;48.242;11.644;2023-03-08T15:15:34;10.70;99.90
16076;DHT22;8142;48.242;11.644;2023-03-08T15:18:00;10.70;99.90
16076;DHT22;8142;48.242;11.644;2023-03-08T15:20:26;10.70;99.90
16076;DHT22;8142;48.242;11.644;2023-03-08T15:22:58;10.70;99.90
16076;DHT22;8142;48.242;11.644;2023-03-08T15:25:28;10.60;99.90
16076;DHT22;8142;48.242;11.644;2023-03-08T15:27:55;10.60;99.90
16076;DHT22;8142;48.242;11.644;2023-03-08T15:30:23;10.70;99.90
16076;DHT22;8142;48.242;11.644;2023-03-08T15:32:49;10.70;99.90
16076;DHT22;8142;48.242;11.644;2023-03-08T15:35:15;10.70;99.90
16076;DHT22;8142;48.242;11.644;2023-03-08T15:37:42;10.70;99.90
16076;DHT22;8142;48.242;11.644;2023-03-08T15:40:11;10.90;99.90
16076;DHT22;8142;48.242;11.644;2023-03-08T15:42:38;10.90;99.90
16076;DHT22;8142;48.242;11.644;2023-03-08T15:45:04;10.90;99.90
16076;DHT22;8142;48.242;11.644;2023-03-08T15:47:30;11.00;99.90
16076;DHT22;8142;48.242;11.644;2023-03-08T15:49:56;11.00;99.90
16076;DHT22;8142;48.242;11.644;2023-03-08T15:52:22;11.10;99.90
16076;DHT22;8142;48.242;11.644;2023-03-08T15:54:49;11.10;99.90
16076;DHT22;8142;48.242;11.644;2023-03-08T15:57:16;11.10;99.90
16076;DHT22;8142;48.242;11.644;2023-03-08T15:59:42;11.10;99.90
16076;DHT22;8142;48.242;11.644;2023-03-08T16:02:14;11.00;99.90
16076;DHT22;8142;48.242;11.644;2023-03-08T16:04:41;11.00;99.90
16076;DHT22;8142;48.242;11.644;2023-03-08T16:07:11;11.10;99.90
16076;DHT22;8142;48.242;11.644;2023-03-08T16:09:38;11.00;99.90
16076;DHT22;8142;48.242;11.644;2023-03-08T16:12:05;11.00;99.90
16076;DHT22;8142;48.242;11.644;2023-03-08T16:14:31;10.90;99.90
16076;DHT22;8142;48.242;11.644;2023-03-08T16:16:57;10.90;99.90
16076;DHT22;8142;48.242;11.644;2023-03-08T16:19:23;10.90;99.90
16076;DHT22;8142;48.242;11.644;2023-03-08T16:21:49;10.80;99.90
16076;DHT22;8142;48.242;11.644;2023-03-08T16:24:16;10.80;99.90
16076;DHT22;8142;48.242;11.644;2023-03-08T16:26:41;10.70;99.90
16076;DHT22;8142;48.242;11.644;2023-03-08T16:29:08;10.70;99.90
16076;DHT22;8142;48.242;11.644;2023-03-08T16:31:34;10.60;99.90
16076;DHT22;8142;48.242;11.644;2023-03-08T16:34:04;10.50;99.90
16076;DHT22;8142;48.242;11.644;2023-03-08T16:36:31;10.50;99.90
16076;DHT22;8142;48.242;11.644;2023-03-08T16:38:57;10.50;99.90
16076;DHT22;8142;48.242;11.644;2023-03-08T16:41:23;10.40;99.90
16076;DHT22;8142;48.242;11.644;2023-03-08T16:43:51;10.40;99.90
16076;DHT22;8142;48.242;11.644;2023-03-08T16:46:20;10.30;99.90
16076;DHT22;8142;48.242;11.644;2023-03-08T16:48:47;10.30;99.90
16076;DHT22;8142;48.242;11.644;2023-03-08T16:51:16;10.20;99.90
16076;DHT22;8142;48.242;11.644;2023-03-08T16:53:43;10.20;99.90
16076;DHT22;8142;48.242;11.644;2023-03-08T16:56:16;10.10;99.90
16076;DHT22;8142;48.242;11.644;2023-03-08T16:58:42;10.10;99.90
16076;DHT22;8142;48.242;11.644;2023-03-08T17:01:12;10.10;99.90
16076;DHT22;8142;48.242;11.644;2023-03-08T17:03:40;10.10;99.90
16076;DHT22;8142;48.242;11.644;2023-03-08T17:06:11;10.00;99.90
16076;DHT22;8142;48.242;11.644;2023-03-08T17:08:38;10.10;99.90
16076;DHT22;8142;48.242;11.644;2023-03-08T17:11:04;10.00;99.90
16076;DHT22;8142;48.242;11.644;2023-03-08T17:13:31;10.00;99.90
16076;DHT22;8142;48.242;11.644;2023-03-08T17:15:57;10.00;99.90
16076;DHT22;8142;48.242;11.644;2023-03-08T17:18:24;10.00;99.90
16076;DHT22;8142;48.242;11.644;2023-03-08T17:20:51;10.00;99.90
16076;DHT22;8142;48.242;11.644;2023-03-08T17:23:18;10.00;99.90
16076;DHT22;8142;48.242;11.644;2023-03-08T17:25:45;10.00;99.90